Time;durP1;ratioP1;P1;durP2;ratioP2;P2;SDS_P1;SDS_P2;PMS_P1;PMS_P2;Temp;Humidity;BMP_temperature;BMP_pressure;BME280_temperature;BME280_humidity;BME280_pressure;Samples;Min_cycle;Max_cycle;Signal;HPM_P1;HPM_P2
2022/09/26 00:01:08;;;;;;;1.60;0.55;;;;;;;-140.72;100.00;52817.00;4987088;28;20049;-68
2022/09/26 00:03:34;;;;;;;1.38;0.40;;;;;;;-140.72;100.00;52798.72;4989398;28;20061;-68
2022/09/26 00:06:07;;;;;;;4.85;0.40;;;;;;;-140.72;100.00;52812.94;4989439;28;20030;-68
2022/09/26 00:08:35;;;;;;;7.30;0.80;;;;;;;-140.72;100.00;52814.97;4987849;28;20027;-68
2022/09/26 00:11:04;;;;;;;0.40;0.40;;;;;;;-140.72;100.00;52782.50;4970231;28;20035;-68
2022/09/26 00:13:32;;;;;;;0.55;0.30;;;;;;;-140.72;100.00;52772.34;4984804;28;20023;-69
2022/09/26 00:15:58;;;;;;;3.10;0.57;;;;;;;-140.72;100.00;52776.41;4989683;28;20033;-68
2022/09/26 00:18:24;;;;;;;1.77;0.50;;;;;;;-140.72;100.00;52798.72;4986052;28;20026;-68
2022/09/26 00:20:50;;;;;;;3.35;1.00;;;;;;;-140.72;100.00;52819.03;4970727;28;20034;-69
2022/09/26 00:23:16;;;;;;;1.02;0.65;;;;;;;-140.72;100.00;52784.53;4981365;28;20023;-68
2022/09/26 00:25:50;;;;;;;1.25;0.80;;;;;;;-140.72;100.00;52808.88;4986376;28;20382;-68
2022/09/26 00:28:17;;;;;;;2.17;0.45;;;;;;;-140.72;100.00;52812.94;4990504;28;20034;-69
2022/09/26 00:30:43;;;;;;;2.03;0.43;;;;;;;-140.72;100.00;52808.88;4992401;28;20022;-69
2022/09/26 00:33:09;;;;;;;2.75;0.70;;;;;;;-140.72;100.00;52804.81;4992899;28;20054;-68
2022/09/26 00:35:35;;;;;;;1.17;0.57;;;;;;;-140.72;100.00;52794.69;4993003;28;20047;-68
2022/09/26 00:38:01;;;;;;;2.45;0.45;;;;;;;-140.72;100.00;52778.44;4988637;28;20053;-68
2022/09/26 00:40:27;;;;;;;0.85;0.43;;;;;;;-140.72;100.00;52796.72;4984243;28;20490;-68
2022/09/26 00:42:53;;;;;;;0.52;0.40;;;;;;;-140.72;100.00;52800.75;4993035;28;20104;-68
2022/09/26 00:45:20;;;;;;;1.20;0.55;;;;;;;-140.72;100.00;52819.03;4992194;28;20048;-68
2022/09/26 00:47:51;;;;;;;0.82;0.45;;;;;;;-140.72;100.00;52780.47;4992834;28;20542;-68
2022/09/26 00:50:24;;;;;;;1.02;0.30;;;;;;;-140.72;100.00;52804.81;4979918;28;20026;-69
2022/09/26 00:52:59;;;;;;;2.88;0.68;;;;;;;-140.72;100.00;52808.88;4992869;28;20033;-68
2022/09/26 00:55:31;;;;;;;0.75;0.40;;;;;;;-140.72;100.00;52794.69;4973561;28;20027;-69
2022/09/26 00:58:03;;;;;;;1.15;0.60;;;;;;;-140.72;100.00;52760.19;4988037;28;20363;-69
2022/09/26 01:00:29;;;;;;;0.95;0.50;;;;;;;-140.72;100.00;52825.13;4991329;28;20375;-69
2022/09/26 01:02:55;;;;;;;2.08;0.65;;;;;;;-140.72;100.00;52782.50;4979306;28;20030;-68
2022/09/26 01:05:22;;;;;;;1.77;0.65;;;;;;;-140.72;100.00;52817.00;4992016;28;20026;-68
2022/09/26 01:07:51;;;;;;;1.83;0.60;;;;;;;-140.72;100.00;52776.41;4985310;28;20475;-69
2022/09/26 01:10:16;;;;;;;0.40;0.30;;;;;;;-140.72;100.00;52806.84;4981036;28;20053;-68
2022/09/26 01:12:42;;;;;;;9.60;0.93;;;;;;;-140.72;100.00;52784.53;4989551;28;20057;-69
2022/09/26 01:15:09;;;;;;;0.75;0.60;;;;;;;-140.72;100.00;52827.16;4985588;28;20030;-69
2022/09/26 01:17:37;;;;;;;1.23;0.50;;;;;;;-140.72;100.00;52796.72;4981807;28;20023;-68
2022/09/26 01:20:05;;;;;;;0.93;0.57;;;;;;;-140.72;100.00;52786.56;4990433;28;20132;-68
2022/09/26 01:23:01;;;;;;;2.50;0.60;;;;;;;-140.72;100.00;52812.94;4992641;28;20034;-68
2022/09/26 01:26:08;;;;;;;1.42;0.85;;;;;;;-140.72;100.00;52762.22;4988304;28;20027;-67
2022/09/26 01:29:02;;;;;;;5.15;0.73;;;;;;;-140.72;100.00;52770.31;4976314;28;20491;-68
2022/09/26 01:32:47;;;;;;;1.23;0.75;;;;;;;-140.72;100.00;52808.88;4984820;28;20653;-68
2022/09/26 01:34:46;;;;;;;0.65;0.50;;;;;;;-140.72;100.00;52790.63;4979983;28;20437;-68
2022/09/26 01:37:48;;;;;;;0.93;0.52;;;;;;;-140.72;100.00;52814.97;4988119;28;20031;-68
2022/09/26 01:40:27;;;;;;;1.10;0.57;;;;;;;-140.72;100.00;52812.94;4984853;28;20037;-68
2022/09/26 01:43:33;;;;;;;3.63;0.98;;;;;;;-140.72;100.00;52796.72;4987260;28;20466;-68
2022/09/26 01:46:09;;;;;;;4.90;0.88;;;;;;;-140.72;100.00;52817.00;4950041;29;20032;-68
2022/09/26 01:48:47;;;;;;;2.35;0.57;;;;;;;-140.72;100.00;52792.66;4950006;29;20526;-68
2022/09/26 01:51:24;;;;;;;1.60;0.43;;;;;;;-140.72;100.00;52796.72;4968468;28;20091;-68
2022/09/26 01:53:58;;;;;;;2.45;0.68;;;;;;;-140.72;100.00;52778.44;4987595;28;20031;-68
2022/09/26 01:56:28;;;;;;;3.20;0.70;;;;;;;-140.72;100.00;52821.06;4983472;28;20040;-68
2022/09/26 01:58:56;;;;;;;;;;;;;;;-140.72;100.00;52817.00;4990651;28;20030;-68
2022/09/26 02:01:25;;;;;;;1.98;1.20;;;;;;;-140.72;100.00;52776.41;4990961;28;19909;-69
2022/09/26 02:03:55;;;;;;;6.80;0.93;;;;;;;-140.72;100.00;52788.59;4990669;28;20018;-68
2022/09/26 02:06:31;;;;;;;4.15;1.00;;;;;;;-140.72;100.00;52788.59;4991193;28;20069;-68
2022/09/26 02:09:06;;;;;;;1.48;0.55;;;;;;;-140.72;100.00;52774.38;4991040;28;20463;-69
2022/09/26 02:11:31;;;;;;;1.20;0.55;;;;;;;-140.72;100.00;52780.47;4990640;28;20031;-68
2022/09/26 02:14:07;;;;;;;3.00;0.65;;;;;;;-140.72;100.00;52806.84;4991173;28;20032;-68
2022/09/26 02:16:43;;;;;;;2.28;0.82;;;;;;;-140.72;100.00;52784.53;4990172;28;20027;-68
2022/09/26 02:19:21;;;;;;;1.60;0.55;;;;;;;-140.72;100.00;52808.88;4991258;28;20042;-67
2022/09/26 02:21:47;;;;;;;1.40;0.63;;;;;;;-140.72;100.00;52796.72;4985439;28;20030;-68
2022/09/26 02:24:13;;;;;;;1.38;0.60;;;;;;;-140.72;100.00;52790.63;4971569;28;20025;-67
2022/09/26 02:26:41;;;;;;;0.80;0.50;;;;;;;-140.72;100.00;52802.78;4983295;28;20031;-67
2022/09/26 02:29:07;;;;;;;1.77;0.70;;;;;;;-140.72;100.00;52780.47;4990164;28;20037;-67
2022/09/26 02:31:38;;;;;;;1.45;0.60;;;;;;;-140.72;100.00;52782.50;4978297;28;20375;-67
2022/09/26 02:34:04;;;;;;;1.05;0.60;;;;;;;-140.72;100.00;52786.56;4991185;28;20127;-69
2022/09/26 02:36:33;;;;;;;1.48;0.82;;;;;;;-140.72;100.00;52764.25;4990323;28;20078;-69
2022/09/26 02:39:00;;;;;;;5.65;0.82;;;;;;;-140.72;100.00;52780.47;4990116;28;20034;-67
2022/09/26 02:41:36;;;;;;;2.13;0.82;;;;;;;-140.72;100.00;52800.75;4990691;28;20030;-68
2022/09/26 02:44:09;;;;;;;1.58;0.50;;;;;;;-140.72;100.00;52766.25;4988640;28;20118;-67
2022/09/26 02:46:37;;;;;;;1.38;0.40;;;;;;;-140.72;100.00;52788.59;4980649;28;20044;-68
2022/09/26 02:49:22;;;;;;;1.33;0.60;;;;;;;-140.72;100.00;52812.94;4985770;28;20106;-68
2022/09/26 02:52:14;;;;;;;1.23;0.60;;;;;;;-140.72;100.00;52806.84;4973743;28;20042;-69
2022/09/26 02:55:02;;;;;;;5.43;1.00;;;;;;;-140.72;100.00;52750.03;4990197;28;20026;-69
2022/09/26 02:57:51;;;;;;;1.27;0.65;;;;;;;-140.72;100.00;52804.81;4990271;28;20022;-69
2022/09/26 03:00:24;;;;;;;1.08;0.60;;;;;;;-140.72;100.00;52796.72;4989398;28;20034;-69
2022/09/26 03:02:57;;;;;;;2.60;0.98;;;;;;;-140.72;100.00;52786.56;4990408;28;20033;-69
2022/09/26 03:05:25;;;;;;;5.68;0.73;;;;;;;-140.72;100.00;52776.41;4976261;28;20077;-69
2022/09/26 03:08:03;;;;;;;1.27;0.57;;;;;;;-140.72;100.00;52758.16;4990504;28;20102;-68
2022/09/26 03:10:30;;;;;;;3.67;0.90;;;;;;;-140.72;100.00;52760.19;4989555;28;20722;-69
2022/09/26 03:13:01;;;;;;;1.65;0.70;;;;;;;-140.72;100.00;52770.31;4989139;28;20034;-69
2022/09/26 03:15:28;;;;;;;4.32;0.73;;;;;;;-140.72;100.00;52784.53;4990349;28;20080;-68
2022/09/26 03:17:55;;;;;;;2.35;0.75;;;;;;;-140.72;100.00;52802.78;4988518;28;20041;-69
2022/09/26 03:20:21;;;;;;;4.32;0.73;;;;;;;-140.72;100.00;52786.56;4978554;28;20033;-69
2022/09/26 03:22:48;;;;;;;1.92;0.57;;;;;;;-140.72;100.00;52784.53;4977195;28;20027;-69
2022/09/26 03:25:18;;;;;;;1.55;0.68;;;;;;;-140.72;100.00;52796.72;4989716;28;20525;-69
2022/09/26 03:27:46;;;;;;;1.27;0.60;;;;;;;-140.72;100.00;52782.50;4989309;28;20501;-69
2022/09/26 03:30:14;;;;;;;1.25;0.60;;;;;;;-140.72;100.00;52833.22;4989071;28;20383;-69
2022/09/26 03:32:40;;;;;;;0.85;0.45;;;;;;;-140.72;100.00;52764.25;4989147;28;20042;-68
2022/09/26 03:35:06;;;;;;;1.02;0.70;;;;;;;-140.72;100.00;52827.16;4982418;28;20045;-69
2022/09/26 03:37:33;;;;;;;0.98;0.43;;;;;;;-140.72;100.00;52764.25;4984230;28;20135;-68
2022/09/26 03:40:03;;;;;;;1.02;0.40;;;;;;;-140.72;100.00;52778.44;4989710;28;20117;-69
2022/09/26 03:42:31;;;;;;;;;;;;;;;-140.72;100.00;52808.88;4989460;28;20040;-68
2022/09/26 03:44:58;;;;;;;0.47;0.30;;;;;;;-140.72;100.00;52782.50;4980828;28;19918;-68
2022/09/26 03:47:24;;;;;;;3.50;0.57;;;;;;;-140.72;100.00;52764.25;4985961;28;20117;-68
2022/09/26 03:49:49;;;;;;;3.97;1.08;;;;;;;-140.72;100.00;52752.06;4989786;28;20027;-68
2022/09/26 03:52:15;;;;;;;0.93;0.52;;;;;;;-140.72;100.00;52782.50;4986131;28;20026;-67
2022/09/26 03:54:40;;;;;;;2.63;0.82;;;;;;;-140.72;100.00;52802.78;4989332;28;20443;-68
2022/09/26 03:57:06;;;;;;;1.67;0.77;;;;;;;-140.72;100.00;52758.16;4989441;28;20030;-68
2022/09/26 03:59:31;;;;;;;1.55;0.68;;;;;;;-140.72;100.00;52770.31;4990872;28;20037;-68
2022/09/26 04:01:56;;;;;;;0.70;0.40;;;;;;;-140.72;100.00;52804.81;4992980;28;20030;-68
2022/09/26 04:04:22;;;;;;;2.28;1.27;;;;;;;-140.72;100.00;52796.72;4993726;28;20054;-68
2022/09/26 04:06:50;;;;;;;1.20;0.43;;;;;;;-140.72;100.00;52841.34;4991853;28;20052;-70
2022/09/26 04:09:16;;;;;;;2.58;0.40;;;;;;;-140.72;100.00;52780.47;4992754;28;20034;-68
2022/09/26 04:11:42;;;;;;;2.13;0.73;;;;;;;-140.72;100.00;52814.97;4992690;28;20374;-68
2022/09/26 04:14:08;;;;;;;2.90;0.70;;;;;;;-140.72;100.00;52788.59;4982311;28;20023;-67
2022/09/26 04:16:35;;;;;;;1.70;0.63;;;;;;;-140.72;100.00;52792.66;4990489;28;20018;-69
2022/09/26 04:19:01;;;;;;;2.25;0.98;;;;;;;-140.72;100.00;52792.66;4993411;28;20034;-69
2022/09/26 04:21:27;;;;;;;1.35;0.70;;;;;;;-140.72;100.00;52784.53;4991406;28;20022;-68
2022/09/26 04:23:53;;;;;;;1.30;0.52;;;;;;;-140.72;100.00;52786.56;4991836;28;20077;-68
2022/09/26 04:26:19;;;;;;;1.15;0.73;;;;;;;-140.72;100.00;52827.16;4991248;28;20470;-68
2022/09/26 04:28:47;;;;;;;2.22;1.02;;;;;;;-140.72;100.00;52812.94;4993130;28;20074;-69
2022/09/26 04:31:13;;;;;;;0.73;0.55;;;;;;;-140.72;100.00;52796.72;4991637;28;20114;-69
2022/09/26 04:33:38;;;;;;;2.42;1.08;;;;;;;-140.72;100.00;52776.41;4992973;28;20521;-68
2022/09/26 04:36:08;;;;;;;1.98;1.00;;;;;;;-140.72;100.00;52849.47;4992599;28;20062;-68
2022/09/26 04:38:34;;;;;;;3.05;0.98;;;;;;;-140.72;100.00;52833.22;4992625;28;20080;-68
2022/09/26 04:41:11;;;;;;;1.55;0.88;;;;;;;-140.72;100.00;52774.38;4989053;28;20027;-68
2022/09/26 04:43:37;;;;;;;1.25;0.60;;;;;;;-140.72;100.00;52861.66;4982327;28;20551;-69
2022/09/26 04:46:15;;;;;;;3.92;0.98;;;;;;;-140.72;100.00;52819.03;4991252;28;20113;-69
2022/09/26 04:48:41;;;;;;;2.28;1.10;;;;;;;-140.72;100.00;52819.03;4981565;28;20073;-69
2022/09/26 04:51:08;;;;;;;1.95;0.88;;;;;;;-140.72;100.00;52798.72;4986154;28;20032;-68
2022/09/26 04:53:34;;;;;;;0.73;0.60;;;;;;;-140.72;100.00;52835.25;4975634;28;20440;-69
2022/09/26 04:56:00;;;;;;;1.80;1.10;;;;;;;-140.72;100.00;52810.91;4983972;28;20034;-70
2022/09/26 04:58:26;;;;;;;2.53;1.00;;;;;;;-140.72;100.00;52829.19;4979116;28;20030;-68
2022/09/26 05:00:51;;;;;;;1.88;0.80;;;;;;;-140.72;100.00;52806.84;4992289;28;20027;-68
2022/09/26 05:03:18;;;;;;;3.78;0.80;;;;;;;-140.72;100.00;52817.00;4990022;28;20053;-67
2022/09/26 05:05:46;;;;;;;1.85;1.25;;;;;;;-140.72;100.00;52825.13;4991434;28;20052;-68
2022/09/26 05:08:12;;;;;;;1.20;0.77;;;;;;;-140.72;100.00;52823.09;4991826;28;20029;-68
2022/09/26 05:10:39;;;;;;;2.30;1.23;;;;;;;-140.72;100.00;52839.31;4988561;28;20038;-68
2022/09/26 05:13:04;;;;;;;3.80;1.25;;;;;;;-140.72;100.00;52829.19;4982801;28;20071;-69
2022/09/26 05:15:30;;;;;;;1.83;0.98;;;;;;;-140.72;100.00;52812.94;4987754;28;20390;-68
2022/09/26 05:17:58;;;;;;;2.65;1.02;;;;;;;-140.72;100.00;52827.16;4983105;28;20026;-68
2022/09/26 05:20:27;;;;;;;1.38;0.80;;;;;;;-140.72;100.00;52835.25;4989712;28;20463;-68
2022/09/26 05:22:56;;;;;;;3.47;1.13;;;;;;;-140.72;100.00;52821.06;4991210;28;20467;-70
2022/09/26 05:28:05;;;;;;;3.35;0.98;;;;;;;-140.72;100.00;52802.78;4992042;28;20157;-68
2022/09/26 05:30:31;;;;;;;1.33;0.82;;;;;;;-140.72;100.00;52784.53;4981029;28;20031;-69
2022/09/26 05:32:57;;;;;;;0.95;0.77;;;;;;;-140.72;100.00;52800.75;4988478;28;20057;-69
2022/09/26 05:35:22;;;;;;;2.78;1.45;;;;;;;-140.72;100.00;52837.28;4992123;28;20043;-68
2022/09/26 05:37:48;;;;;;;1.50;0.95;;;;;;;-140.72;100.00;52817.00;4985252;28;20034;-69
2022/09/26 05:43:01;;;;;;;3.45;1.02;;;;;;;-140.72;100.00;52817.00;4989301;28;20427;-67
2022/09/26 05:45:30;;;;;;;2.13;1.42;;;;;;;-140.72;100.00;52845.41;4991012;28;20023;-68
2022/09/26 05:47:55;;;;;;;2.20;0.85;;;;;;;-140.72;100.00;52825.13;4990809;28;20375;-68
2022/09/26 05:50:23;;;;;;;2.92;1.20;;;;;;;-140.72;100.00;52823.09;4980125;28;20034;-68
2022/09/26 05:52:49;;;;;;;2.38;1.15;;;;;;;-140.72;100.00;52796.72;4971689;28;20475;-68
2022/09/26 05:55:15;;;;;;;2.97;0.82;;;;;;;-140.72;100.00;52829.19;4988237;28;20030;-67
2022/09/26 05:57:52;;;;;;;1.88;0.90;;;;;;;-140.72;100.00;52788.59;4991683;28;20550;-69
2022/09/26 06:00:17;;;;;;;2.42;0.82;;;;;;;-140.72;100.00;52786.56;4989037;28;20126;-68
2022/09/26 06:02:43;;;;;;;2.28;1.58;;;;;;;-140.72;100.00;52833.22;4990880;28;20398;-69
2022/09/26 06:05:11;;;;;;;1.13;0.93;;;;;;;-140.72;100.00;52800.75;4984598;28;20058;-68
2022/09/26 06:07:37;;;;;;;1.20;0.50;;;;;;;-140.72;100.00;52788.59;4984773;28;20041;-68
2022/09/26 06:10:05;;;;;;;1.50;0.90;;;;;;;-140.72;100.00;52817.00;4982209;28;20498;-68
2022/09/26 06:12:31;;;;;;;1.30;0.70;;;;;;;-140.72;100.00;52804.81;4984268;28;20031;-68
2022/09/26 06:14:56;;;;;;;8.98;1.10;;;;;;;-140.72;100.00;52774.38;4981356;28;20463;-68
2022/09/26 06:17:22;;;;;;;1.58;0.93;;;;;;;-140.72;100.00;52804.81;4987521;28;20073;-68
2022/09/26 06:19:48;;;;;;;3.08;1.08;;;;;;;-140.72;100.00;52821.06;4990474;28;20022;-68
2022/09/26 06:22:14;;;;;;;1.55;1.08;;;;;;;-140.72;100.00;52825.13;4979909;28;20186;-68
2022/09/26 06:24:39;;;;;;;4.75;1.00;;;;;;;-140.72;100.00;52821.06;4986189;28;20023;-68
2022/09/26 06:27:04;;;;;;;3.47;0.85;;;;;;;-140.72;100.00;52804.81;4985339;28;20030;-68
2022/09/26 06:29:31;;;;;;;2.33;0.85;;;;;;;-140.72;100.00;52788.59;4973701;28;20553;-67
2022/09/26 06:31:56;;;;;;;2.22;1.10;;;;;;;-140.72;100.00;52810.91;4980380;28;20056;-68
2022/09/26 06:34:22;;;;;;;4.45;1.23;;;;;;;-140.72;100.00;52812.94;4989838;28;20054;-68
2022/09/26 06:36:47;;;;;;;2.28;1.10;;;;;;;-140.72;100.00;52825.13;4991092;28;20116;-68
2022/09/26 06:39:13;;;;;;;1.05;0.57;;;;;;;-140.72;100.00;52786.56;4990430;28;20453;-67
2022/09/26 06:41:39;;;;;;;4.18;1.27;;;;;;;-140.72;100.00;52794.69;4989499;28;20030;-68
2022/09/26 06:44:04;;;;;;;2.17;1.17;;;;;;;-140.72;100.00;52802.78;4988721;28;20041;-68
2022/09/26 06:46:32;;;;;;;1.35;0.65;;;;;;;-140.72;100.00;52804.81;4989110;28;20033;-67
2022/09/26 06:48:58;;;;;;;2.45;1.20;;;;;;;-140.72;100.00;52808.88;4988556;28;20030;-68
2022/09/26 06:51:23;;;;;;;3.05;0.80;;;;;;;-140.72;100.00;52776.41;4990126;28;20031;-68
2022/09/26 06:53:49;;;;;;;2.75;0.80;;;;;;;-140.72;100.00;52827.16;4976964;28;20026;-68
2022/09/26 06:56:14;;;;;;;1.58;0.98;;;;;;;-140.72;100.00;52800.75;4990095;28;20026;-68
2022/09/26 06:58:40;;;;;;;2.60;0.73;;;;;;;-140.72;100.00;52788.59;4983458;28;20089;-68
2022/09/26 07:01:06;;;;;;;1.88;0.98;;;;;;;-140.72;100.00;52794.69;4983300;28;20034;-68
2022/09/26 07:03:31;;;;;;;3.42;0.77;;;;;;;-140.72;100.00;52792.66;4972053;28;20038;-69
2022/09/26 07:05:57;;;;;;;1.45;1.02;;;;;;;-140.72;100.00;52804.81;4983798;28;20026;-69
2022/09/26 07:08:24;;;;;;;2.42;1.27;;;;;;;-140.72;100.00;52739.88;4989645;28;20077;-68
2022/09/26 07:10:50;;;;;;;2.28;0.80;;;;;;;-140.72;100.00;52833.22;4978172;28;20031;-68
2022/09/26 07:13:16;;;;;;;1.02;0.70;;;;;;;-140.72;100.00;52782.50;4977032;28;20033;-68
2022/09/26 07:15:44;;;;;;;2.15;0.90;;;;;;;-140.72;100.00;52792.66;4990172;28;20455;-68
2022/09/26 07:18:10;;;;;;;1.25;0.50;;;;;;;-140.72;100.00;52737.84;4977758;28;20038;-69
2022/09/26 07:20:45;;;;;;;2.58;0.80;;;;;;;-140.72;100.00;52745.97;4989384;28;20394;-68
2022/09/26 07:23:11;;;;;;;2.83;1.20;;;;;;;-140.72;100.00;52776.41;4989759;28;20109;-68
2022/09/26 07:25:40;;;;;;;3.17;1.75;;;;;;;-140.72;100.00;52758.16;4989469;28;20045;-68
2022/09/26 07:28:08;;;;;;;1.27;0.80;;;;;;;-140.72;100.00;52770.31;4990748;28;20030;-68
2022/09/26 07:30:33;;;;;;;3.45;0.93;;;;;;;-140.72;100.00;52786.56;4989841;28;20034;-69
2022/09/26 07:33:03;;;;;;;1.05;0.65;;;;;;;-140.72;100.00;52768.28;4988492;28;20019;-69
2022/09/26 07:35:34;;;;;;;4.60;1.20;;;;;;;-140.72;100.00;52776.41;4989836;28;20050;-68
2022/09/26 07:38:00;;;;;;;1.67;0.65;;;;;;;-140.72;100.00;52754.09;4990037;28;20030;-69
2022/09/26 07:40:26;;;;;;;4.75;1.23;;;;;;;-140.72;100.00;52758.16;4978926;28;20106;-68
2022/09/26 07:42:52;;;;;;;2.45;0.80;;;;;;;-140.72;100.00;52802.78;4988413;28;20023;-68
2022/09/26 07:50:10;;;;;;;4.45;0.85;;;;;;;-140.72;100.00;52735.81;4990282;28;20030;-68
2022/09/26 07:50:57;;;;;;;1.00;0.55;;;;;;;-140.72;100.00;52814.97;4985576;28;20105;-69
2022/09/26 07:53:26;;;;;;;1.27;0.82;;;;;;;-140.72;100.00;52792.66;4986062;28;20042;-69
2022/09/26 07:56:05;;;;;;;1.33;0.77;;;;;;;-140.72;100.00;52788.59;4988932;28;20030;-69
2022/09/26 07:58:31;;;;;;;0.82;0.52;;;;;;;-140.72;100.00;52750.03;4973027;28;20027;-68
2022/09/26 08:00:57;;;;;;;1.52;0.77;;;;;;;-140.72;100.00;52784.53;4970602;28;20127;-68
2022/09/26 08:03:25;;;;;;;2.40;0.73;;;;;;;-140.72;100.00;52790.63;4983494;28;20121;-69
2022/09/26 08:05:55;;;;;;;2.95;1.25;;;;;;;-140.72;100.00;52796.72;4982636;28;20085;-69
2022/09/26 08:08:20;;;;;;;2.20;1.15;;;;;;;-140.72;100.00;52833.22;4977499;28;20038;-68
2022/09/26 08:10:46;;;;;;;3.05;1.10;;;;;;;-140.72;100.00;52825.13;4977952;28;20037;-68
2022/09/26 08:13:11;;;;;;;1.45;1.10;;;;;;;-140.72;100.00;52784.53;4988070;28;20499;-69
2022/09/26 08:15:37;;;;;;;2.92;1.38;;;;;;;-140.72;100.00;52784.53;4988729;28;20034;-68
2022/09/26 08:18:03;;;;;;;1.83;1.20;;;;;;;-140.72;100.00;52800.75;4988958;28;20030;-69
2022/09/26 08:20:28;;;;;;;3.40;1.13;;;;;;;-140.72;100.00;52837.28;4989145;28;20034;-69
2022/09/26 08:22:55;;;;;;;2.05;0.75;;;;;;;-140.72;100.00;52780.47;4989414;28;20053;-69
2022/09/26 08:25:21;;;;;;;2.95;1.30;;;;;;;-140.72;100.00;52780.47;4977190;28;20448;-69
2022/09/26 08:27:47;;;;;;;2.85;1.13;;;;;;;-140.72;100.00;52825.13;4971096;28;20031;-70
2022/09/26 08:30:14;;;;;;;2.60;1.27;;;;;;;-140.72;100.00;52786.56;4978013;28;20019;-70
2022/09/26 08:32:40;;;;;;;1.85;1.15;;;;;;;-140.72;100.00;52794.69;4987588;28;20100;-69
2022/09/26 08:35:09;;;;;;;1.70;1.20;;;;;;;-140.72;100.00;52823.09;4989977;28;20050;-70
2022/09/26 08:37:34;;;;;;;3.75;1.13;;;;;;;-140.72;100.00;52772.34;4988965;28;20033;-70
2022/09/26 08:40:00;;;;;;;3.83;1.40;;;;;;;-140.72;100.00;52798.72;4981097;28;20031;-69
2022/09/26 08:42:50;;;;;;;1.88;1.15;;;;;;;-140.72;100.00;52800.75;4984534;28;20035;-69
2022/09/26 08:48:38;;;;;;;3.72;1.35;;;;;;;-140.72;100.00;52776.41;4973712;28;20054;-68
2022/09/26 08:51:30;;;;;;;1.35;0.90;;;;;;;-140.72;100.00;52817.00;4992129;28;20348;-68
2022/09/26 08:54:19;;;;;;;2.60;1.00;;;;;;;-140.72;100.00;52778.44;4980105;28;20022;-68
2022/09/26 08:57:00;;;;;;;2.00;1.10;;;;;;;-140.72;100.00;52788.59;4992551;28;20030;-67
2022/09/26 08:59:37;;;;;;;2.25;0.88;;;;;;;-140.72;100.00;52804.81;4992122;28;20486;-68
2022/09/26 09:02:09;;;;;;;5.28;1.27;;;;;;;-140.72;100.00;52790.63;4985362;28;20483;-69
2022/09/26 09:05:00;;;;;;;1.45;1.08;;;;;;;-140.72;100.00;52788.59;4987229;28;20101;-68
2022/09/26 09:07:25;;;;;;;2.17;1.33;;;;;;;-140.72;100.00;52784.53;4992455;28;20036;-69
2022/09/26 09:09:55;;;;;;;3.25;1.20;;;;;;;-140.72;100.00;52790.63;4979074;28;20374;-69
2022/09/26 09:12:29;;;;;;;1.58;1.15;;;;;;;-140.72;100.00;52823.09;4991555;28;20041;-69
2022/09/26 09:15:00;;;;;;;7.65;1.60;;;;;;;-140.72;100.00;52784.53;4992410;28;20177;-69
2022/09/26 09:17:56;;;;;;;2.63;1.52;;;;;;;-140.72;100.00;52760.19;4979920;28;20038;-69
2022/09/26 09:20:40;;;;;;;3.92;1.65;;;;;;;-140.72;100.00;52774.38;4980397;28;20066;-69
2022/09/26 09:23:18;;;;;;;1.83;1.13;;;;;;;-140.72;100.00;52825.13;4972770;28;20054;-70
2022/09/26 09:25:53;;;;;;;1.67;1.20;;;;;;;-140.72;100.00;52758.16;4988950;28;20106;-69
2022/09/26 09:28:54;;;;;;;2.25;1.30;;;;;;;-140.72;100.00;52798.72;4992002;28;20040;-69
2022/09/26 09:31:21;;;;;;;2.22;1.27;;;;;;;-140.72;100.00;52808.88;4975760;28;20116;-69
2022/09/26 09:33:51;;;;;;;1.33;1.00;;;;;;;-140.72;100.00;52784.53;4991947;28;20035;-69
2022/09/26 09:36:18;;;;;;;;;;;;;;;-140.72;100.00;52764.25;4979435;28;20050;-69
2022/09/26 09:38:47;;;;;;;1.55;0.80;;;;;;;-140.72;100.00;52802.78;4992505;28;19920;-69
2022/09/26 09:41:17;;;;;;;2.20;1.27;;;;;;;-140.72;100.00;52825.13;4973146;28;20443;-69
2022/09/26 09:43:47;;;;;;;1.42;1.02;;;;;;;-140.72;100.00;52808.88;4985353;28;20038;-69
2022/09/26 09:46:19;;;;;;;;;;;;;;;-140.72;100.00;52792.66;4978996;28;20058;-69
2022/09/26 09:48:49;;;;;;;1.92;1.10;;;;;;;-140.72;100.00;52812.94;4991518;28;19918;-69
2022/09/26 09:51:42;;;;;;;1.77;1.15;;;;;;;-140.72;100.00;52790.63;4984146;28;20039;-69
2022/09/26 09:54:17;;;;;;;2.30;1.45;;;;;;;-140.72;100.00;52825.13;4941357;28;20499;-69
2022/09/26 09:57:21;;;;;;;3.30;1.25;;;;;;;-140.72;100.00;52786.56;4987765;28;20041;-70
2022/09/26 10:00:14;;;;;;;2.63;1.60;;;;;;;-140.72;100.00;52804.81;4972911;28;20047;-69
2022/09/26 10:03:01;;;;;;;6.32;1.77;;;;;;;-140.72;100.00;52837.28;4991851;28;20069;-68
2022/09/26 10:05:35;;;;;;;2.33;1.52;;;;;;;-140.72;100.00;52802.78;4980951;28;20035;-69
2022/09/26 10:08:10;;;;;;;2.13;1.33;;;;;;;-140.72;100.00;52800.75;4990823;28;20065;-68
2022/09/26 10:11:21;;;;;;;3.72;1.38;;;;;;;-140.72;100.00;52819.03;4991783;28;20037;-69
2022/09/26 10:13:48;;;;;;;1.55;1.10;;;;;;;-140.72;100.00;52782.50;4972565;28;20027;-69
2022/09/26 10:16:14;;;;;;;1.92;1.50;;;;;;;-140.72;100.00;52802.78;4989428;28;20073;-68
2022/09/26 10:19:07;;;;;;;2.60;1.85;;;;;;;-140.72;100.00;52817.00;4991234;28;20026;-68
2022/09/26 10:21:39;;;;;;;2.05;1.35;;;;;;;-140.72;100.00;52798.72;4980680;28;20026;-68
2022/09/26 10:24:21;;;;;;;1.40;1.10;;;;;;;-140.72;100.00;52800.75;4988832;28;20482;-68
2022/09/26 10:26:48;;;;;;;2.45;1.30;;;;;;;-140.72;100.00;52802.78;4984566;28;20031;-68
2022/09/26 10:29:33;;;;;;;1.35;1.13;;;;;;;-140.72;100.00;52849.47;4988435;28;20018;-68
2022/09/26 10:31:59;;;;;;;3.20;1.70;;;;;;;-140.72;100.00;52792.66;4979408;28;20093;-68
2022/09/26 10:34:38;;;;;;;4.45;1.88;;;;;;;-140.72;100.00;52808.88;4989581;28;20038;-68
2022/09/26 10:37:24;;;;;;;2.53;1.58;;;;;;;-140.72;100.00;52780.47;4991027;28;20038;-67
2022/09/26 10:42:38;;;;;;;3.35;2.33;;;;;;;-140.72;100.00;52849.47;4978421;28;20100;-68
2022/09/26 10:45:14;;;;;;;3.90;1.65;;;;;;;-140.72;100.00;52827.16;4990909;28;20410;-67
2022/09/26 10:47:44;;;;;;;1.92;1.55;;;;;;;-140.72;100.00;52833.22;4990162;28;20030;-67
2022/09/26 10:50:22;;;;;;;2.80;1.73;;;;;;;-140.72;100.00;52841.34;4990146;28;20506;-67
2022/09/26 10:52:52;;;;;;;2.53;2.28;;;;;;;-140.72;100.00;52847.44;4982319;28;20073;-68
2022/09/26 10:55:26;;;;;;;4.85;1.73;;;;;;;-140.72;100.00;52806.84;4990367;28;20114;-68
2022/09/26 10:57:54;;;;;;;2.70;2.20;;;;;;;-140.72;100.00;52837.28;4990720;28;20114;-66
2022/09/26 11:00:36;;;;;;;3.63;1.85;;;;;;;-140.72;100.00;52823.09;4990272;28;20042;-67
2022/09/26 11:03:07;;;;;;;2.28;1.92;;;;;;;-140.72;100.00;52796.72;4988028;28;20390;-66
2022/09/26 11:05:56;;;;;;;2.00;1.67;;;;;;;-140.72;100.00;52847.44;4980446;28;20034;-68
2022/09/26 11:08:50;;;;;;;2.97;2.15;;;;;;;-140.72;100.00;52837.28;4989164;28;20034;-68
2022/09/26 11:11:16;;;;;;;2.55;1.60;;;;;;;-140.72;100.00;52796.72;4987450;28;20394;-68
2022/09/26 11:14:02;;;;;;;3.20;2.25;;;;;;;-140.72;100.00;52794.69;4981126;28;20030;-68
2022/09/26 11:16:28;;;;;;;2.20;1.80;;;;;;;-140.72;100.00;52798.72;4988811;28;20030;-67
2022/09/26 11:19:15;;;;;;;2.83;1.88;;;;;;;-140.72;100.00;52796.72;4987799;28;20030;-67
2022/09/26 11:22:24;;;;;;;1.95;1.48;;;;;;;-140.72;100.00;52825.13;4981723;28;20431;-68
2022/09/26 11:25:10;;;;;;;2.20;1.60;;;;;;;-140.72;100.00;52821.06;4980657;28;20104;-69
2022/09/26 11:27:42;;;;;;;2.45;1.60;;;;;;;-140.72;100.00;52831.19;4986110;28;20471;-69
2022/09/26 11:30:21;;;;;;;3.10;1.92;;;;;;;-140.72;100.00;52827.16;4976870;28;20046;-68
2022/09/26 11:32:53;;;;;;;2.88;2.22;;;;;;;-140.72;100.00;52825.13;4984359;28;20053;-70
2022/09/26 11:35:21;;;;;;;4.60;1.63;;;;;;;-140.72;100.00;52800.75;4989817;28;20058;-68
2022/09/26 11:38:12;;;;;;;2.55;1.80;;;;;;;-140.72;100.00;52780.47;4989680;28;20018;-68
2022/09/26 11:41:02;;;;;;;1.98;1.25;;;;;;;-140.72;100.00;52802.78;4989495;28;20040;-68
2022/09/26 11:43:43;;;;;;;3.63;1.75;;;;;;;-140.72;100.00;52825.13;4989761;28;20276;-69